Time;durP1;ratioP1;P1;durP2;ratioP2;P2;SDS_P1;SDS_P2;PMS_P1;PMS_P2;Temp;Humidity;BMP_temperature;BMP_pressure;BME280_temperature;BME280_humidity;BME280_pressure;Samples;Min_cycle;Max_cycle;Signal;HPM_P1;HPM_P2
2023/04/14 00:02:05;;;;;;;1.65;0.70;;;;;;;15.58;31.49;100826.22;5004705;28;20073;-70
2023/04/14 00:04:36;;;;;;;2.80;0.82;;;;;;;15.45;33.73;100837.38;5007086;28;20060;-71
2023/04/14 00:07:04;;;;;;;1.38;0.75;;;;;;;15.37;32.49;100824.28;4998455;28;20049;-71
2023/04/14 00:09:33;;;;;;;1.75;0.90;;;;;;;15.29;33.28;100820.69;4988738;28;20116;-71
2023/04/14 00:12:01;;;;;;;1.55;0.90;;;;;;;15.19;32.04;100818.84;4988081;28;20050;-71
2023/04/14 00:14:30;;;;;;;2.13;0.82;;;;;;;15.06;34.86;100820.44;4994254;28;20046;-72
2023/04/14 00:16:58;;;;;;;1.83;0.80;;;;;;;14.94;33.74;100817.69;4988673;28;20042;-72
2023/04/14 00:19:27;;;;;;;1.17;0.85;;;;;;;14.79;33.11;100819.22;4992971;28;20593;-70
2023/04/14 00:21:57;;;;;;;0.98;0.60;;;;;;;14.72;34.32;100816.50;4982921;28;20106;-71
2023/04/14 00:24:26;;;;;;;0.90;0.60;;;;;;;14.59;35.90;100813.75;4988232;28;20058;-71
2023/04/14 00:26:55;;;;;;;1.58;0.82;;;;;;;14.52;36.19;100808.38;4984440;28;20049;-71
2023/04/14 00:29:24;;;;;;;1.40;0.90;;;;;;;14.54;36.24;100814.50;5006376;28;20050;-71
2023/04/14 00:31:53;;;;;;;1.20;0.88;;;;;;;14.54;35.05;100810.19;4989707;28;20054;-71
2023/04/14 00:34:21;;;;;;;2.08;0.82;;;;;;;14.55;36.28;100805.88;4975612;28;20046;-71
2023/04/14 00:36:50;;;;;;;1.70;0.82;;;;;;;14.55;35.68;100798.06;4996626;28;20141;-72
2023/04/14 00:39:21;;;;;;;0.85;0.70;;;;;;;14.53;34.86;100805.81;4994186;28;20050;-72
2023/04/14 00:41:50;;;;;;;1.48;0.95;;;;;;;14.48;35.12;100809.19;4985010;28;20055;-71
2023/04/14 00:44:18;;;;;;;1.42;0.68;;;;;;;14.42;35.08;100804.78;4994048;28;20053;-71
2023/04/14 00:46:48;;;;;;;4.82;1.02;;;;;;;14.39;35.53;100808.22;4988174;28;20151;-71
2023/04/14 00:49:17;;;;;;;1.63;0.98;;;;;;;14.34;35.71;100811.59;4990269;28;20056;-71
2023/04/14 00:51:46;;;;;;;1.73;0.80;;;;;;;14.31;35.81;100808.94;4988055;28;20503;-72
2023/04/14 00:54:18;;;;;;;2.03;1.08;;;;;;;14.17;35.79;100808.75;4985129;28;20054;-72
2023/04/14 00:56:50;;;;;;;0.98;0.80;;;;;;;14.08;38.09;100811.19;4992989;28;20055;-73
2023/04/14 00:59:19;;;;;;;1.65;0.80;;;;;;;14.06;38.04;100807.69;4991381;28;20051;-73
2023/04/14 01:01:47;;;;;;;2.03;0.77;;;;;;;14.02;38.54;100806.78;4995723;28;20069;-72
2023/04/14 01:04:17;;;;;;;3.65;1.10;;;;;;;13.97;37.49;100801.50;4985251;28;20054;-72
2023/04/14 01:06:45;;;;;;;1.25;0.70;;;;;;;13.97;36.89;100798.00;5000720;28;20094;-71
2023/04/14 01:09:15;;;;;;;0.88;0.60;;;;;;;13.93;37.85;100799.69;5005128;28;20050;-71
2023/04/14 01:11:55;;;;;;;2.08;1.27;;;;;;;13.90;38.93;100803.97;4999285;28;20077;-71
2023/04/14 01:14:36;;;;;;;1.50;1.00;;;;;;;13.82;40.70;100812.50;5005517;28;20522;-70
2023/04/14 01:17:11;;;;;;;1.50;1.00;;;;;;;13.78;41.32;100804.63;5001378;28;20057;-70
2023/04/14 01:19:58;;;;;;;3.08;1.27;;;;;;;13.75;41.81;100809.78;4997575;28;20054;-70
2023/04/14 01:22:32;;;;;;;1.92;1.10;;;;;;;13.74;39.31;100805.44;4997783;28;20544;-70
2023/04/14 01:25:21;;;;;;;2.22;0.90;;;;;;;13.71;40.13;100798.44;5002051;28;20506;-69
2023/04/14 01:28:05;;;;;;;2.65;1.27;;;;;;;13.65;40.33;100802.66;5000023;28;20045;-69
2023/04/14 01:30:48;;;;;;;2.15;1.02;;;;;;;13.61;40.60;100805.22;5001016;28;20061;-70
2023/04/14 01:33:23;;;;;;;1.65;0.90;;;;;;;13.55;40.99;100807.69;4996048;28;20500;-70
2023/04/14 01:35:55;;;;;;;1.45;1.15;;;;;;;13.51;40.19;100816.28;4999441;28;20053;-70
2023/04/14 01:38:27;;;;;;;1.48;1.08;;;;;;;13.46;39.42;100815.34;4989291;28;20506;-69
2023/04/14 01:40:57;;;;;;;;;;;;;;;13.37;41.19;100812.56;4998160;28;20424;-69
2023/04/14 01:43:29;;;;;;;1.67;0.98;;;;;;;13.30;41.13;100811.56;5002534;28;19933;-70
2023/04/14 01:46:04;;;;;;;1.75;1.17;;;;;;;13.28;42.28;100802.84;5000315;28;20046;-70
2023/04/14 01:48:35;;;;;;;1.70;1.17;;;;;;;13.24;43.91;100818.31;4994047;28;20652;-71
2023/04/14 01:51:05;;;;;;;3.45;1.30;;;;;;;13.18;44.63;100813.91;5003669;28;20112;-70
2023/04/14 01:53:36;;;;;;;2.15;1.20;;;;;;;13.13;45.19;100810.34;5004464;28;20046;-71
2023/04/14 01:56:08;;;;;;;3.17;1.05;;;;;;;13.09;45.39;100814.59;4998377;28;20081;-70
2023/04/14 01:58:37;;;;;;;1.52;0.80;;;;;;;13.00;46.34;100811.81;4992563;28;20046;-69
2023/04/14 02:01:07;;;;;;;1.95;1.08;;;;;;;12.97;46.42;100812.63;5005762;28;20045;-69
2023/04/14 02:03:38;;;;;;;2.05;1.15;;;;;;;12.91;47.13;100806.41;5003093;28;20458;-69
2023/04/14 02:06:11;;;;;;;2.67;0.88;;;;;;;12.91;46.74;100811.63;4997723;28;20054;-70
2023/04/14 02:08:41;;;;;;;2.75;1.10;;;;;;;12.85;46.04;100808.88;4988797;28;20058;-71
2023/04/14 02:11:12;;;;;;;2.45;1.38;;;;;;;12.78;46.87;100810.47;4983291;28;21008;-71
2023/04/14 02:13:42;;;;;;;1.50;0.75;;;;;;;12.75;48.02;100806.09;4991167;28;20058;-70
2023/04/14 02:16:11;;;;;;;2.67;0.90;;;;;;;12.69;48.06;100799.88;4992415;28;20046;-71
2023/04/14 02:18:42;;;;;;;3.15;0.98;;;;;;;12.66;47.98;100798.09;4990248;28;20058;-70
2023/04/14 02:21:12;;;;;;;1.50;0.88;;;;;;;12.60;48.42;100800.59;4980991;28;20072;-71
2023/04/14 02:23:41;;;;;;;2.22;1.17;;;;;;;12.55;48.16;100803.09;4990882;28;20058;-71
2023/04/14 02:26:14;;;;;;;1.77;1.00;;;;;;;12.52;47.60;100799.53;4991380;28;20511;-72
2023/04/14 02:28:55;;;;;;;1.60;0.70;;;;;;;12.49;47.34;100800.34;4998939;28;20395;-71
2023/04/14 02:31:26;;;;;;;1.95;0.82;;;;;;;12.48;48.20;100795.09;4992288;28;20042;-72
2023/04/14 02:33:58;;;;;;;3.20;1.00;;;;;;;12.44;49.06;100801.06;4984224;28;20535;-70
2023/04/14 02:36:31;;;;;;;;;;;;;;;12.44;49.56;100801.06;4988652;28;20117;-70
2023/04/14 02:39:02;;;;;;;1.92;0.80;;;;;;;12.41;48.47;100793.22;5000195;28;19933;-70
2023/04/14 02:41:32;;;;;;;1.90;1.20;;;;;;;12.39;48.88;100795.78;4990098;28;20090;-70
2023/04/14 02:44:06;;;;;;;1.15;0.88;;;;;;;12.35;48.86;100791.38;4987059;28;20455;-69
2023/04/14 02:46:39;;;;;;;1.83;1.00;;;;;;;12.32;48.60;100789.59;4985085;28;20050;-70
2023/04/14 02:49:14;;;;;;;0.90;0.70;;;;;;;12.29;48.88;100791.22;4992384;28;20676;-70
2023/04/14 02:51:44;;;;;;;2.00;0.90;;;;;;;12.25;49.70;100798.03;4981663;28;20046;-70
2023/04/14 02:54:15;;;;;;;2.70;0.90;;;;;;;12.22;48.70;100803.19;4990791;28;20700;-70
2023/04/14 02:56:45;;;;;;;1.45;0.85;;;;;;;12.20;48.56;100798.78;4989509;28;20050;-71
2023/04/14 02:59:14;;;;;;;2.60;0.90;;;;;;;12.17;49.03;100815.16;4989309;28;20046;-69
2023/04/14 03:01:44;;;;;;;2.72;1.05;;;;;;;12.14;48.75;100807.31;4985926;28;20046;-69
2023/04/14 03:04:16;;;;;;;2.00;1.00;;;;;;;12.11;49.24;100809.81;4998194;28;20446;-70
2023/04/14 03:06:44;;;;;;;1.45;0.70;;;;;;;12.07;49.06;100808.00;4994494;28;20053;-71
2023/04/14 03:09:13;;;;;;;1.70;1.08;;;;;;;12.05;48.89;100804.47;5005887;28;20112;-71
2023/04/14 03:11:44;;;;;;;3.95;1.10;;;;;;;12.03;49.07;100803.59;5000788;28;20058;-70
2023/04/14 03:14:14;;;;;;;2.25;0.98;;;;;;;12.02;49.37;100812.19;5006047;28;20629;-71
2023/04/14 03:16:44;;;;;;;2.50;0.80;;;;;;;11.99;49.86;100825.09;5007534;28;20045;-71
2023/04/14 03:19:14;;;;;;;1.83;0.88;;;;;;;11.93;50.15;100824.13;5003876;28;20156;-70
2023/04/14 03:21:43;;;;;;;2.25;1.00;;;;;;;11.93;50.65;100816.34;5006206;28;20061;-71
2023/04/14 03:24:15;;;;;;;5.55;0.80;;;;;;;11.89;50.59;100824.88;5010749;28;20046;-71
2023/04/14 03:26:46;;;;;;;3.28;1.55;;;;;;;11.88;50.62;100822.22;5001562;28;20046;-70
2023/04/14 03:29:18;;;;;;;2.08;1.10;;;;;;;11.86;50.54;100823.88;4999428;28;20137;-71
2023/04/14 03:31:47;;;;;;;0.95;0.73;;;;;;;11.79;51.21;100822.81;5002601;28;20096;-71
2023/04/14 03:34:18;;;;;;;1.25;1.00;;;;;;;11.75;51.48;100821.03;5005680;28;20049;-71
2023/04/14 03:36:49;;;;;;;1.58;1.00;;;;;;;11.74;51.65;100829.63;5004352;28;20503;-70
2023/04/14 03:39:19;;;;;;;1.55;0.88;;;;;;;11.70;51.70;100833.88;4998509;28;20475;-70
2023/04/14 03:41:50;;;;;;;2.72;1.40;;;;;;;11.68;51.68;100830.34;5001700;28;20046;-72
2023/04/14 03:44:20;;;;;;;2.88;1.08;;;;;;;11.65;51.75;100827.66;5003809;28;20081;-70
2023/04/14 03:46:49;;;;;;;2.78;1.23;;;;;;;11.61;52.93;100828.41;5004583;28;20314;-72
2023/04/14 03:49:21;;;;;;;2.30;1.08;;;;;;;11.51;52.81;100822.09;5004683;28;20050;-71
2023/04/14 03:51:52;;;;;;;1.88;1.08;;;;;;;11.56;52.67;100835.19;5006048;28;20796;-70
2023/04/14 03:54:24;;;;;;;1.17;1.00;;;;;;;11.51;52.54;100840.25;4996346;28;21189;-71
2023/04/14 03:56:55;;;;;;;2.17;1.40;;;;;;;11.46;52.50;100838.38;5003904;28;20045;-71
2023/04/14 03:59:26;;;;;;;1.92;1.33;;;;;;;11.37;52.20;100839.00;5004034;28;20458;-71
2023/04/14 04:01:56;;;;;;;1.83;1.00;;;;;;;11.33;52.92;100839.75;5004890;28;20045;-71
2023/04/14 04:04:26;;;;;;;2.60;1.10;;;;;;;11.29;53.74;100848.25;5003553;28;20799;-70
2023/04/14 04:06:55;;;;;;;3.90;1.05;;;;;;;11.28;54.90;100847.41;5009815;28;20046;-71
2023/04/14 04:09:25;;;;;;;2.45;0.93;;;;;;;11.29;54.77;100845.66;4994331;28;20057;-70
2023/04/14 04:11:55;;;;;;;2.17;1.20;;;;;;;11.28;54.86;100851.69;4991326;28;20057;-70
2023/04/14 04:14:26;;;;;;;1.38;0.90;;;;;;;11.26;55.53;100851.66;4987851;28;20078;-71
2023/04/14 04:16:57;;;;;;;2.60;0.88;;;;;;;11.25;56.49;100860.28;4989260;28;20048;-70
2023/04/14 04:19:27;;;;;;;3.15;1.45;;;;;;;11.22;57.44;100859.28;5001431;28;20527;-71
2023/04/14 04:21:59;;;;;;;3.80;0.90;;;;;;;11.17;57.88;100858.28;4991114;28;20082;-70
2023/04/14 04:24:30;;;;;;;2.28;1.23;;;;;;;11.14;57.84;100864.25;4986202;28;20054;-70
2023/04/14 04:27:00;;;;;;;2.90;1.42;;;;;;;11.13;58.64;100861.63;4985372;28;20046;-70
2023/04/14 04:29:29;;;;;;;3.00;1.50;;;;;;;11.11;59.14;100879.72;4995259;28;20039;-71
2023/04/14 04:31:58;;;;;;;8.20;2.63;;;;;;;11.04;58.70;100876.06;4990024;28;20073;-71
2023/04/14 04:34:32;;;;;;;2.83;1.30;;;;;;;11.01;58.80;100885.44;4980744;28;21091;-70
2023/04/14 04:37:02;;;;;;;4.07;1.45;;;;;;;10.98;56.82;100877.59;4994128;28;20799;-70
2023/04/14 04:39:31;;;;;;;2.72;1.35;;;;;;;10.96;57.11;100880.13;4988603;28;20050;-70
2023/04/14 04:42:06;;;;;;;1.83;0.90;;;;;;;10.94;56.68;100878.34;4985145;28;20540;-71
2023/04/14 04:44:35;;;;;;;1.40;0.90;;;;;;;10.86;57.41;100881.56;4989780;28;20132;-71
2023/04/14 04:47:04;;;;;;;1.10;0.70;;;;;;;10.82;56.64;100879.72;4983162;28;20050;-70
2023/04/14 04:49:35;;;;;;;2.03;0.73;;;;;;;10.82;57.16;100886.63;4990374;28;20046;-70
2023/04/14 04:52:03;;;;;;;2.22;0.70;;;;;;;10.79;57.42;100878.72;4987727;28;20052;-70
2023/04/14 04:54:32;;;;;;;1.52;0.88;;;;;;;10.78;57.97;100879.56;4992017;28;20046;-71
2023/04/14 04:57:01;;;;;;;1.85;0.68;;;;;;;10.76;57.51;100878.66;4993702;28;20439;-70
2023/04/14 04:59:29;;;;;;;0.90;0.68;;;;;;;10.73;57.42;100879.44;4987772;28;20468;-71
2023/04/14 05:01:58;;;;;;;2.00;0.80;;;;;;;10.68;58.26;100873.25;4997868;28;20512;-71
2023/04/14 05:04:27;;;;;;;0.70;0.57;;;;;;;10.63;59.41;100878.28;4986924;28;20054;-70
2023/04/14 05:06:57;;;;;;;2.38;0.80;;;;;;;10.56;59.02;100876.34;4981917;28;20505;-71
2023/04/14 05:09:26;;;;;;;0.93;0.57;;;;;;;10.50;57.95;100878.72;4986553;28;20546;-69
2023/04/14 05:11:56;;;;;;;0.88;0.55;;;;;;;10.47;59.52;100883.81;4979783;28;20046;-69
2023/04/14 05:14:24;;;;;;;1.38;0.70;;;;;;;10.42;59.32;100875.00;4989208;28;20594;-68
2023/04/14 05:16:53;;;;;;;2.25;0.65;;;;;;;10.41;59.13;100870.66;4985037;28;20050;-68
2023/04/14 05:19:21;;;;;;;1.90;0.93;;;;;;;10.36;59.07;100869.66;4984201;28;20445;-69
2023/04/14 05:21:50;;;;;;;2.90;0.85;;;;;;;10.32;58.35;100870.38;4986129;28;20263;-69
2023/04/14 05:24:20;;;;;;;1.75;0.77;;;;;;;10.26;59.22;100869.31;4984290;28;20124;-68
2023/04/14 05:26:49;;;;;;;0.90;0.60;;;;;;;10.22;59.58;100866.59;4982861;28;20054;-71
2023/04/14 05:29:17;;;;;;;0.85;0.60;;;;;;;10.16;60.83;100864.66;4986667;28;20130;-70
2023/04/14 05:31:46;;;;;;;1.08;0.50;;;;;;;10.12;59.59;100872.25;4981576;28;20062;-70
2023/04/14 05:34:14;;;;;;;1.90;0.70;;;;;;;10.06;60.10;100857.44;4988028;28;20050;-70
2023/04/14 05:36:43;;;;;;;1.02;0.50;;;;;;;9.99;60.55;100860.66;4984600;28;20474;-73
2023/04/14 05:39:12;;;;;;;1.45;0.52;;;;;;;9.98;60.40;100864.06;4979080;28;20049;-68
2023/04/14 05:41:42;;;;;;;1.38;0.70;;;;;;;9.92;60.89;100869.91;4988331;28;20120;-68
2023/04/14 05:44:11;;;;;;;1.20;0.52;;;;;;;9.87;62.43;100871.44;4983163;28;20061;-68
2023/04/14 05:46:40;;;;;;;1.25;0.60;;;;;;;9.80;62.37;100870.38;4981585;28;20050;-68
2023/04/14 05:49:08;;;;;;;2.38;0.55;;;;;;;9.76;62.62;100873.66;4985932;28;20049;-68
2023/04/14 05:51:37;;;;;;;1.45;0.60;;;;;;;9.71;63.13;100871.72;4986794;28;20058;-68
2023/04/14 05:54:05;;;;;;;1.67;0.57;;;;;;;9.62;62.18;100867.13;4980974;28;20049;-68
2023/04/14 05:56:34;;;;;;;4.57;0.85;;;;;;;9.55;62.82;100863.47;4978329;28;20050;-68
2023/04/14 05:59:11;;;;;;;1.42;0.93;;;;;;;9.52;62.86;100863.34;4987222;28;20047;-68
2023/04/14 06:01:40;;;;;;;0.40;0.30;;;;;;;9.49;63.22;100862.38;4981421;28;20113;-68
2023/04/14 06:04:09;;;;;;;1.05;0.45;;;;;;;9.46;62.51;100867.41;4984392;28;20112;-68
2023/04/14 06:06:38;;;;;;;1.35;0.40;;;;;;;9.40;64.02;100862.91;4978869;28;20062;-67
2023/04/14 06:09:07;;;;;;;0.60;0.40;;;;;;;9.36;63.29;100861.03;5003838;28;20062;-67
2023/04/14 06:11:36;;;;;;;1.85;0.50;;;;;;;9.31;64.46;100857.41;5001037;28;20054;-68
2023/04/14 06:14:06;;;;;;;1.42;0.50;;;;;;;9.26;64.23;100865.00;5002783;28;20504;-67
2023/04/14 06:16:36;;;;;;;1.58;0.60;;;;;;;9.22;64.70;100864.00;5001679;28;20069;-68
2023/04/14 06:19:05;;;;;;;1.00;0.60;;;;;;;9.17;64.10;100859.50;5002846;28;20049;-67
2023/04/14 06:21:33;;;;;;;0.90;0.50;;;;;;;9.13;64.32;100857.63;4999381;28;20060;-67
2023/04/14 06:24:02;;;;;;;1.40;0.50;;;;;;;9.08;65.35;100854.00;5003284;28;20050;-67
2023/04/14 06:26:32;;;;;;;0.52;0.50;;;;;;;9.04;64.51;100854.69;5002520;28;20495;-68
2023/04/14 06:29:01;;;;;;;0.43;0.22;;;;;;;9.00;65.51;100856.28;4998911;28;20049;-67
2023/04/14 06:31:30;;;;;;;1.27;0.50;;;;;;;8.96;65.50;100860.47;5003958;28;20523;-67
2023/04/14 06:34:00;;;;;;;1.88;0.32;;;;;;;8.91;66.29;100862.00;5005491;28;20053;-68
2023/04/14 06:36:28;;;;;;;0.57;0.20;;;;;;;8.86;66.36;100867.78;5009693;28;20140;-67
2023/04/14 06:38:58;;;;;;;0.40;0.30;;;;;;;8.79;65.55;100866.66;5007891;28;20104;-67
2023/04/14 06:41:27;;;;;;;1.30;0.32;;;;;;;8.74;66.40;100868.19;5003220;28;20654;-67
2023/04/14 06:43:55;;;;;;;0.55;0.32;;;;;;;8.68;66.69;100860.22;5004492;28;20042;-67
2023/04/14 06:46:24;;;;;;;2.15;0.60;;;;;;;8.63;66.70;100869.47;5004008;28;20495;-68
2023/04/14 06:48:52;;;;;;;3.22;0.65;;;;;;;8.58;67.02;100867.59;5004539;28;20054;-68
2023/04/14 06:51:23;;;;;;;0.30;0.20;;;;;;;8.55;68.21;100872.63;5005207;28;20053;-68
2023/04/14 06:53:51;;;;;;;1.65;0.40;;;;;;;8.49;67.81;100872.38;5005460;28;20124;-69
2023/04/14 06:56:20;;;;;;;0.38;0.32;;;;;;;8.46;69.16;100874.84;5008408;28;20053;-67
2023/04/14 06:58:49;;;;;;;0.47;0.22;;;;;;;8.42;70.01;100879.84;5008017;28;20562;-68
2023/04/14 07:01:18;;;;;;;0.82;0.30;;;;;;;8.38;69.75;100879.69;5007913;28;20053;-68
2023/04/14 07:03:48;;;;;;;0.75;0.45;;;;;;;8.35;69.88;100878.66;5001062;28;21545;-68
2023/04/14 07:06:17;;;;;;;0.90;0.43;;;;;;;8.35;70.44;100876.09;5006860;28;20155;-69
2023/04/14 07:08:47;;;;;;;0.65;0.30;;;;;;;8.36;69.80;100880.41;4998820;28;20057;-68
2023/04/14 07:11:16;;;;;;;0.28;0.20;;;;;;;8.37;69.61;100875.31;5005205;28;20093;-67
2023/04/14 07:13:45;;;;;;;0.82;0.30;;;;;;;8.39;70.30;100876.28;5003229;28;20047;-68
2023/04/14 07:16:13;;;;;;;0.75;0.40;;;;;;;8.42;70.25;100872.09;4995590;28;20145;-69
2023/04/14 07:18:42;;;;;;;0.93;0.52;;;;;;;8.41;70.87;100871.22;4998498;28;20181;-68
2023/04/14 07:21:10;;;;;;;0.75;0.40;;;;;;;8.41;72.73;100871.22;4995475;28;20647;-67
2023/04/14 07:23:39;;;;;;;0.50;0.40;;;;;;;8.40;69.63;100874.59;5002228;28;20050;-68
2023/04/14 07:26:09;;;;;;;1.63;0.40;;;;;;;8.41;69.40;100863.50;5002171;28;20045;-68
2023/04/14 07:28:45;;;;;;;0.90;0.40;;;;;;;8.39;69.67;100870.25;4995891;28;20530;-68
2023/04/14 07:31:13;;;;;;;0.77;0.50;;;;;;;8.37;70.31;100862.44;4998814;28;20554;-68
2023/04/14 07:33:42;;;;;;;0.95;0.47;;;;;;;8.36;70.98;100871.00;4990572;28;20078;-68
2023/04/14 07:36:11;;;;;;;0.32;0.30;;;;;;;8.33;71.05;100864.84;4998345;28;20056;-68
2023/04/14 07:38:40;;;;;;;0.80;0.40;;;;;;;8.29;72.40;100868.09;4996351;28;20420;-68
2023/04/14 07:41:10;;;;;;;1.25;0.40;;;;;;;8.26;72.51;100868.84;5001057;28;20046;-69
2023/04/14 07:43:39;;;;;;;1.65;0.40;;;;;;;8.25;71.04;100868.81;4996260;28;20116;-68
2023/04/14 07:46:09;;;;;;;0.50;0.40;;;;;;;8.22;71.51;100874.69;5002607;28;20940;-68
2023/04/14 07:48:38;;;;;;;1.25;0.70;;;;;;;8.18;71.61;100870.25;5006066;28;20042;-69
2023/04/14 07:51:07;;;;;;;0.30;0.28;;;;;;;8.12;72.25;100870.88;5003416;28;20129;-68
2023/04/14 07:53:39;;;;;;;0.63;0.43;;;;;;;8.08;71.94;100879.28;5001470;28;20060;-68
2023/04/14 07:56:12;;;;;;;2.33;0.57;;;;;;;8.02;71.14;100876.47;4990275;28;20049;-68
2023/04/14 07:58:41;;;;;;;1.95;0.73;;;;;;;7.97;71.30;100881.44;4992806;28;20787;-68
2023/04/14 08:01:10;;;;;;;1.25;0.50;;;;;;;7.92;71.99;100874.31;4989501;28;20519;-67
2023/04/14 08:03:38;;;;;;;1.05;0.40;;;;;;;7.88;72.49;100880.16;5000045;28;20407;-67
2023/04/14 08:06:07;;;;;;;1.58;1.15;;;;;;;7.83;72.58;100879.09;4995874;28;20050;-67
2023/04/14 08:08:37;;;;;;;1.95;0.60;;;;;;;7.76;72.96;100872.78;4997622;28;20058;-68
2023/04/14 08:11:05;;;;;;;1.08;0.60;;;;;;;7.72;73.48;100882.09;4993356;28;20408;-68
2023/04/14 08:13:36;;;;;;;0.95;0.40;;;;;;;7.68;73.02;100874.16;4991610;28;20100;-67
2023/04/14 08:16:05;;;;;;;2.50;0.85;;;;;;;7.64;73.16;100878.28;5001345;28;20047;-68
2023/04/14 08:18:33;;;;;;;1.05;0.63;;;;;;;7.58;73.86;100883.16;4992534;28;20046;-67
2023/04/14 08:21:02;;;;;;;0.65;0.50;;;;;;;7.54;73.31;100886.44;4995694;28;20112;-67
2023/04/14 08:23:31;;;;;;;0.98;0.60;;;;;;;7.49;73.94;100890.50;5004478;28;20081;-68
2023/04/14 08:25:59;;;;;;;1.13;0.68;;;;;;;7.44;74.32;100892.00;5003976;28;20054;-67
2023/04/14 08:28:29;;;;;;;2.70;0.52;;;;;;;7.36;74.65;100889.09;5003213;28;20046;-67
2023/04/14 08:30:59;;;;;;;1.20;0.70;;;;;;;7.34;75.00;100890.72;5001265;28;20515;-68
2023/04/14 08:33:28;;;;;;;1.80;0.50;;;;;;;7.33;75.86;100894.97;4993701;28;20048;-68
2023/04/14 08:35:57;;;;;;;3.38;0.80;;;;;;;7.34;76.42;100893.28;4996007;28;20050;-67
2023/04/14 08:38:25;;;;;;;0.70;0.45;;;;;;;7.33;76.71;100900.13;4990841;28;20042;-67
2023/04/14 08:40:57;;;;;;;2.38;0.45;;;;;;;7.30;77.15;100894.81;4994959;28;20954;-67
2023/04/14 08:43:25;;;;;;;0.73;0.50;;;;;;;7.29;76.74;100887.94;4998790;28;20216;-67
2023/04/14 08:45:55;;;;;;;1.08;0.40;;;;;;;7.26;77.74;100895.53;4998570;28;20047;-67
2023/04/14 08:48:29;;;;;;;0.80;0.52;;;;;;;7.23;78.06;100897.94;4991367;28;20046;-67
2023/04/14 08:51:05;;;;;;;0.52;0.32;;;;;;;7.21;78.24;100899.56;4995171;28;20554;-68
2023/04/14 08:53:34;;;;;;;0.65;0.60;;;;;;;7.19;78.58;100900.31;4994722;28;20046;-67
2023/04/14 08:56:04;;;;;;;1.08;0.50;;;;;;;7.14;78.82;100907.81;4991587;28;20049;-68
2023/04/14 08:58:33;;;;;;;1.95;0.57;;;;;;;7.12;79.34;100909.44;4996101;28;20081;-68
2023/04/14 09:01:03;;;;;;;0.75;0.65;;;;;;;7.10;79.89;100905.91;4996959;28;20579;-67
2023/04/14 09:03:34;;;;;;;0.77;0.45;;;;;;;7.09;80.20;100905.03;5004593;28;20510;-67
2023/04/14 09:06:04;;;;;;;0.75;0.30;;;;;;;7.06;80.15;100904.91;4998762;28;20056;-67
2023/04/14 09:08:34;;;;;;;2.22;0.55;;;;;;;7.04;80.23;100914.25;4999424;28;20050;-68
2023/04/14 09:11:03;;;;;;;5.75;0.70;;;;;;;7.03;79.89;100909.91;4998684;28;20053;-67
2023/04/14 09:13:32;;;;;;;2.22;0.40;;;;;;;7.04;80.35;100908.22;4992751;28;20054;-68
2023/04/14 09:16:01;;;;;;;1.00;0.40;;;;;;;7.01;80.84;100906.38;4995248;28;20053;-67
2023/04/14 09:18:30;;;;;;;1.90;0.60;;;;;;;6.99;80.70;100902.00;4992478;28;20634;-67
2023/04/14 09:21:00;;;;;;;1.23;0.73;;;;;;;6.96;81.10;100906.97;4994028;28;20612;-67
2023/04/14 09:23:30;;;;;;;0.75;0.47;;;;;;;6.96;81.75;100901.81;4997703;28;20157;-67
2023/04/14 09:25:59;;;;;;;0.52;0.43;;;;;;;6.94;81.53;100899.22;4987866;28;20050;-68
2023/04/14 09:28:28;;;;;;;0.88;0.80;;;;;;;6.93;82.07;100898.31;4999992;28;20081;-68
2023/04/14 09:30:57;;;;;;;1.33;0.65;;;;;;;6.94;82.68;100904.34;5002577;28;20488;-67
2023/04/14 09:33:26;;;;;;;1.17;0.65;;;;;;;6.93;82.40;100903.44;4992266;28;20058;-68
2023/04/14 09:35:55;;;;;;;0.82;0.63;;;;;;;6.93;83.18;100906.00;4994349;28;20108;-67
2023/04/14 09:38:36;;;;;;;1.00;0.70;;;;;;;6.92;83.50;100895.69;4999201;28;20061;-68
2023/04/14 09:41:06;;;;;;;0.73;0.57;;;;;;;6.93;84.09;100898.31;4995941;28;20139;-67
2023/04/14 09:43:35;;;;;;;0.40;0.30;;;;;;;6.93;84.09;100890.56;4997107;28;20045;-68
2023/04/14 09:46:08;;;;;;;0.95;0.40;;;;;;;6.93;84.26;100892.28;4995784;28;20059;-68
2023/04/14 09:48:37;;;;;;;1.70;0.70;;;;;;;6.92;85.10;100891.41;4995417;28;20057;-67
2023/04/14 09:51:08;;;;;;;1.00;0.60;;;;;;;6.92;85.22;100891.41;5003200;28;20068;-67
2023/04/14 09:53:47;;;;;;;0.70;0.60;;;;;;;6.92;84.99;100888.84;5001004;28;20053;-67
2023/04/14 09:56:16;;;;;;;1.50;0.80;;;;;;;6.93;85.17;100898.31;5004611;28;20060;-68
2023/04/14 09:58:45;;;;;;;4.85;1.17;;;;;;;6.93;86.29;100900.00;4995673;28;20104;-68
2023/04/14 10:01:15;;;;;;;1.83;1.00;;;;;;;6.94;86.27;100901.78;4995572;28;20056;-67
2023/04/14 10:03:45;;;;;;;1.70;0.73;;;;;;;6.95;86.27;100897.50;4998976;28;20495;-67
2023/04/14 10:06:18;;;;;;;2.15;0.50;;;;;;;6.97;86.66;100903.59;4999360;28;20046;-67
2023/04/14 10:09:02;;;;;;;2.00;0.88;;;;;;;6.96;86.79;100892.41;4996564;28;20057;-67
2023/04/14 10:11:32;;;;;;;2.13;0.90;;;;;;;6.97;87.63;100898.47;4998896;28;20053;-68
2023/04/14 10:14:04;;;;;;;1.98;0.82;;;;;;;6.96;87.48;100906.97;5004628;28;20062;-68
2023/04/14 10:16:33;;;;;;;1.27;0.90;;;;;;;6.96;86.87;100906.97;4987564;28;20038;-68
2023/04/14 10:19:01;;;;;;;1.98;0.95;;;;;;;6.95;86.62;100916.38;4997800;28;20245;-67
2023/04/14 10:21:30;;;;;;;1.58;0.70;;;;;;;6.93;87.12;100907.72;5004228;28;20054;-67
2023/04/14 10:24:01;;;;;;;1.13;0.68;;;;;;;6.91;86.11;100906.75;4999274;28;20053;-68
2023/04/14 10:26:30;;;;;;;1.67;0.77;;;;;;;6.89;87.37;100908.38;5000180;28;20061;-67
2023/04/14 10:29:00;;;;;;;1.05;0.60;;;;;;;6.86;87.02;100916.84;4994971;28;20057;-67
2023/04/14 10:31:32;;;;;;;1.85;0.70;;;;;;;6.84;87.66;100913.31;5005956;28;20050;-67
2023/04/14 10:34:09;;;;;;;1.05;0.40;;;;;;;6.84;87.53;100915.00;5004008;28;20427;-67
2023/04/14 10:36:38;;;;;;;0.75;0.60;;;;;;;6.83;87.64;100918.41;4986020;28;20082;-67
2023/04/14 10:39:09;;;;;;;1.98;1.08;;;;;;;6.80;88.02;100923.38;4994151;28;20043;-68
2023/04/14 10:41:47;;;;;;;1.83;0.73;;;;;;;6.77;88.23;100920.66;4995467;28;20042;-67
2023/04/14 10:44:30;;;;;;;1.45;0.32;;;;;;;6.74;88.33;100918.84;5004142;28;20392;-67
2023/04/14 10:47:00;;;;;;;1.52;0.77;;;;;;;6.73;87.86;100919.63;4996114;28;20691;-67
2023/04/14 10:49:33;;;;;;;1.40;0.73;;;;;;;6.61;88.30;100899.34;4998841;28;20128;-67
2023/04/14 10:52:02;;;;;;;2.00;0.85;;;;;;;6.67;88.24;100916.78;4988563;28;20051;-68
2023/04/14 10:54:50;;;;;;;1.60;0.40;;;;;;;6.57;88.59;100906.84;4991106;28;20137;-68
2023/04/14 10:57:19;;;;;;;1.70;0.77;;;;;;;6.65;89.16;100910.69;4998074;28;20050;-68
2023/04/14 10:59:48;;;;;;;4.40;0.85;;;;;;;6.64;88.88;100916.63;4991558;28;20046;-68
2023/04/14 11:02:27;;;;;;;2.10;0.88;;;;;;;6.57;89.86;100917.13;4990335;28;20073;-67
2023/04/14 11:05:07;;;;;;;1.17;0.68;;;;;;;6.49;90.74;100907.38;5003861;28;20484;-67
2023/04/14 11:07:39;;;;;;;0.93;0.65;;;;;;;6.48;91.29;100910.75;4994691;28;20058;-67
2023/04/14 11:10:29;;;;;;;1.52;0.80;;;;;;;6.48;91.43;100913.34;4992211;28;20046;-67
2023/04/14 11:13:01;;;;;;;3.10;0.88;;;;;;;6.49;90.50;100914.22;4994612;28;20617;-67
2023/04/14 11:15:50;;;;;;;1.33;0.80;;;;;;;6.43;91.32;100913.91;4996655;28;20050;-68
2023/04/14 11:18:21;;;;;;;1.95;0.47;;;;;;;6.37;92.31;100919.63;4989636;28;20694;-68
2023/04/14 11:20:53;;;;;;;2.63;1.02;;;;;;;6.33;92.06;100912.56;4992515;28;20419;-68
2023/04/14 11:23:29;;;;;;;2.08;0.82;;;;;;;6.32;92.01;100917.63;5000966;28;20455;-68
2023/04/14 11:26:00;;;;;;;1.48;1.00;;;;;;;6.30;91.64;100925.28;4991326;28;20393;-67
2023/04/14 11:28:30;;;;;;;1.75;0.70;;;;;;;6.28;91.23;100927.78;5001194;28;20590;-68
2023/04/14 11:31:00;;;;;;;1.00;0.70;;;;;;;6.24;91.08;100928.41;4997585;28;20108;-67
2023/04/14 11:33:30;;;;;;;0.73;0.50;;;;;;;6.21;91.16;100933.41;4992506;28;20050;-68
2023/04/14 11:35:59;;;;;;;0.68;0.52;;;;;;;6.16;90.62;100933.97;4995905;28;20054;-67
2023/04/14 11:38:28;;;;;;;1.73;0.75;;;;;;;6.12;90.62;100930.38;4998712;28;20400;-68
2023/04/14 11:40:59;;;;;;;8.00;0.75;;;;;;;6.10;91.45;100936.25;4997067;28;20070;-68
2023/04/14 11:43:30;;;;;;;1.15;0.55;;;;;;;6.06;91.34;100933.50;4991533;28;20522;-68
2023/04/14 11:46:00;;;;;;;1.48;0.88;;;;;;;6.01;90.84;100934.97;5002928;28;20129;-68